createdAt,value
2019-01-21T00:00:42.759Z,10.37
2019-01-21T00:03:14.326Z,10.20
2019-01-21T00:05:37.851Z,11.87
2019-01-21T00:08:04.747Z,8.97
2019-01-21T00:10:31.579Z,10.03
2019-01-21T00:12:58.224Z,9.50
2019-01-21T00:15:24.821Z,9.27
2019-01-21T00:17:51.431Z,8.47
2019-01-21T00:20:18.132Z,10.10
2019-01-21T00:22:44.813Z,8.37
2019-01-21T00:25:11.511Z,8.53
2019-01-21T00:27:38.253Z,7.20
2019-01-21T00:30:06.733Z,9.13
2019-01-21T00:32:33.474Z,6.83
2019-01-21T00:35:00.211Z,9.47
2019-01-21T00:37:26.852Z,8.67
2019-01-21T00:39:53.594Z,7.77
2019-01-21T00:42:20.229Z,8.57
2019-01-21T00:44:46.973Z,7.63
2019-01-21T00:47:13.549Z,8.67
2019-01-21T00:49:40.249Z,9.57
2019-01-21T00:52:06.862Z,9.10
2019-01-21T00:54:33.525Z,9.43
2019-01-21T00:57:00.267Z,8.03
2019-01-21T00:59:26.846Z,6.60
2019-01-21T01:01:53.540Z,7.47
2019-01-21T01:04:20.282Z,7.83
2019-01-21T01:06:47.122Z,7.67
2019-01-21T01:09:13.866Z,6.97
2019-01-21T01:11:40.504Z,5.83
2019-01-21T01:14:07.069Z,13.33
2019-01-21T01:16:33.676Z,9.57
2019-01-21T01:19:00.232Z,7.70
2019-01-21T01:21:27.056Z,9.50
2019-01-21T01:23:53.731Z,8.50
2019-01-21T01:26:20.435Z,8.70
2019-01-21T01:28:47.109Z,9.37
2019-01-21T01:31:13.816Z,9.23
2019-01-21T01:33:42.192Z,8.73
2019-01-21T01:36:08.935Z,9.57
2019-01-21T01:38:35.572Z,10.57
2019-01-21T01:41:02.311Z,7.90
2019-01-21T01:43:28.989Z,11.00
2019-01-21T01:45:55.690Z,10.17
2019-01-21T01:48:22.431Z,7.63
2019-01-21T01:50:49.272Z,10.53
2019-01-21T01:53:16.060Z,10.97
2019-01-21T01:55:43.162Z,7.53
2019-01-21T01:58:09.905Z,5.50
2019-01-21T02:00:36.750Z,5.63
2019-01-21T02:03:03.587Z,5.40
2019-01-21T02:05:30.329Z,6.20
2019-01-21T02:07:57.072Z,5.40
2019-01-21T02:10:23.733Z,6.63
2019-01-21T02:12:50.448Z,8.77
2019-01-21T02:15:17.191Z,9.30
2019-01-21T02:17:43.933Z,6.80
2019-01-21T02:20:17.430Z,7.63
2019-01-21T02:22:45.191Z,9.03
2019-01-21T02:25:12.343Z,7.50
2019-01-21T02:27:49.942Z,8.60
2019-01-21T02:30:24.462Z,9.67
2019-01-21T02:32:56.013Z,9.63
2019-01-21T02:35:25.008Z,6.40
2019-01-21T02:37:53.389Z,6.83
2019-01-21T02:40:24.804Z,9.00
2019-01-21T02:43:08.560Z,9.07
2019-01-21T02:45:37.375Z,7.23
2019-01-21T02:48:05.959Z,8.93
2019-01-21T02:50:37.507Z,6.57
2019-01-21T02:53:12.235Z,7.63
2019-01-21T02:55:42.154Z,5.20
2019-01-21T02:58:19.747Z,6.30
2019-01-21T03:00:51.319Z,6.30
2019-01-21T03:03:22.710Z,7.00
2019-01-21T03:05:51.229Z,8.80
2019-01-21T03:08:28.720Z,8.53
2019-01-21T03:11:13.896Z,6.70
2019-01-21T03:13:45.551Z,5.90
2019-01-21T03:16:15.480Z,6.77
2019-01-21T03:18:55.924Z,7.07
2019-01-21T03:21:24.309Z,8.33
2019-01-21T03:24:09.644Z,5.63
2019-01-21T03:26:38.269Z,5.47
2019-01-21T03:29:21.809Z,5.87
2019-01-21T03:31:56.157Z,7.43
2019-01-21T03:34:33.625Z,8.20
2019-01-21T03:37:07.916Z,7.73
2019-01-21T03:39:43.982Z,8.63
2019-01-21T03:42:12.676Z,6.37
2019-01-21T03:44:44.265Z,7.00
2019-01-21T03:47:12.609Z,6.73
2019-01-21T03:49:40.972Z,6.63
2019-01-21T03:52:27.803Z,6.17
2019-01-21T03:54:54.258Z,6.37
2019-01-21T03:57:25.623Z,6.03
2019-01-21T04:00:03.176Z,5.57
2019-01-21T04:02:32.681Z,3.67
2019-01-21T04:05:10.191Z,7.23
2019-01-21T04:07:38.549Z,5.87
2019-01-21T04:10:13.075Z,6.23
2019-01-21T04:12:41.554Z,7.33
2019-01-21T04:15:16.372Z,6.33
2019-01-21T04:17:57.157Z,6.70
2019-01-21T04:20:40.894Z,6.13
2019-01-21T04:23:09.377Z,6.47
2019-01-21T04:25:46.969Z,6.10
2019-01-21T04:28:18.526Z,6.90
2019-01-21T04:30:46.788Z,6.67
2019-01-21T04:33:21.540Z,5.20
2019-01-21T04:35:56.461Z,6.60
2019-01-21T04:38:28.013Z,5.90
2019-01-21T04:40:56.269Z,5.80
2019-01-21T04:43:24.671Z,7.23
2019-01-21T04:46:05.340Z,8.60
2019-01-21T04:48:33.821Z,7.63
2019-01-21T04:51:11.219Z,8.37
2019-01-21T04:53:52.289Z,6.70
2019-01-21T04:56:37.563Z,6.97
2019-01-21T04:59:15.259Z,6.33
2019-01-21T05:01:52.955Z,5.83
2019-01-21T05:04:24.434Z,6.43
2019-01-21T05:06:52.787Z,6.53
2019-01-21T05:09:25.548Z,5.03
2019-01-21T05:11:54.151Z,3.93
2019-01-21T05:14:28.707Z,4.90
2019-01-21T05:17:09.446Z,5.43
2019-01-21T05:19:41.921Z,7.87
2019-01-21T05:22:10.507Z,7.83
2019-01-21T05:24:38.863Z,8.27
2019-01-21T05:27:13.406Z,6.17
2019-01-21T05:29:41.895Z,7.80
2019-01-21T05:32:13.262Z,6.10
2019-01-21T05:34:58.407Z,5.70
2019-01-21T05:37:33.136Z,8.80
2019-01-21T05:40:03.510Z,8.07
2019-01-21T05:42:31.786Z,8.10
2019-01-21T05:45:12.608Z,7.67
2019-01-21T05:47:50.205Z,10.50
2019-01-21T05:50:18.584Z,8.60
2019-01-21T05:53:02.321Z,8.83
2019-01-21T05:55:33.771Z,9.17
2019-01-21T05:58:05.337Z,6.80
2019-01-21T06:00:33.635Z,8.17
2019-01-21T06:03:14.271Z,8.07
2019-01-21T06:05:59.320Z,8.27
2019-01-21T06:08:43.081Z,9.23
2019-01-21T06:11:11.356Z,22.93
2019-01-21T06:13:45.879Z,9.30
2019-01-21T06:16:14.258Z,7.43
2019-01-21T06:18:42.639Z,7.23
2019-01-21T06:21:14.091Z,6.37
2019-01-21T06:23:51.583Z,7.27
2019-01-21T06:26:20.066Z,5.87
2019-01-21T06:28:54.167Z,6.57
2019-01-21T06:31:22.579Z,6.07
2019-01-21T06:33:56.923Z,6.13
2019-01-21T06:36:25.254Z,7.93
2019-01-21T06:39:13.883Z,7.20
2019-01-21T06:41:44.703Z,7.60
2019-01-21T06:44:13.428Z,7.60
2019-01-21T06:46:50.968Z,6.07
2019-01-21T06:49:31.894Z,6.93
2019-01-21T06:52:00.500Z,7.83
2019-01-21T06:54:35.205Z,5.73
2019-01-21T06:57:06.658Z,8.33
2019-01-21T06:59:38.007Z,6.30
2019-01-21T07:02:18.571Z,6.77
2019-01-21T07:04:46.950Z,10.77
2019-01-21T07:07:30.699Z,8.60
2019-01-21T07:10:07.674Z,6.13
2019-01-21T07:12:54.487Z,8.33
2019-01-21T07:15:26.056Z,7.87
2019-01-21T07:17:54.400Z,8.83
2019-01-21T07:20:22.797Z,8.53
2019-01-21T07:22:54.352Z,8.37
2019-01-21T07:25:38.188Z,8.70
2019-01-21T07:28:06.513Z,10.40
2019-01-21T07:30:34.949Z,12.20
2019-01-21T07:33:06.472Z,9.57
2019-01-21T07:35:34.876Z,12.23
2019-01-21T07:38:06.328Z,9.37
2019-01-21T07:40:34.706Z,9.10
2019-01-21T07:43:12.200Z,10.83
2019-01-21T07:45:43.597Z,10.20
2019-01-21T07:48:15.208Z,9.63
2019-01-21T07:50:44.608Z,13.73
2019-01-21T07:53:16.157Z,10.23
2019-01-21T07:55:44.437Z,11.57
2019-01-21T07:58:25.101Z,16.63
2019-01-21T08:00:53.586Z,40.10
2019-01-21T08:03:22.173Z,21.90
2019-01-21T08:05:50.857Z,11.63
2019-01-21T08:08:36.133Z,14.03
2019-01-21T08:11:20.995Z,11.20
2019-01-21T08:13:49.475Z,14.97
2019-01-21T08:16:24.203Z,14.57
2019-01-21T08:18:52.687Z,24.80
2019-01-21T08:21:30.283Z,12.30
2019-01-21T08:24:01.935Z,11.37
2019-01-21T08:26:33.386Z,11.53
2019-01-21T08:29:10.880Z,11.50
2019-01-21T08:31:45.618Z,12.93
2019-01-21T08:34:13.922Z,8.10
2019-01-21T08:36:42.371Z,8.50
2019-01-21T08:39:10.846Z,9.53
2019-01-21T08:41:42.398Z,16.57
2019-01-21T08:44:23.170Z,12.20
2019-01-21T08:46:51.592Z,11.13
2019-01-21T08:49:23.100Z,13.53
2019-01-21T08:52:09.807Z,11.07
2019-01-21T08:54:44.433Z,9.87
2019-01-21T08:57:15.990Z,10.83
2019-01-21T08:59:47.544Z,9.80
2019-01-21T09:02:22.269Z,6.27
2019-01-21T09:04:50.650Z,14.63
2019-01-21T09:07:28.552Z,11.03
2019-01-21T09:09:57.033Z,16.17
2019-01-21T09:12:27.271Z,12.87
2019-01-21T09:14:55.736Z,11.97
2019-01-21T09:17:30.362Z,9.27
2019-01-21T09:20:01.922Z,9.83
2019-01-21T09:22:30.343Z,10.10
2019-01-21T09:25:07.994Z,10.33
2019-01-21T09:27:39.645Z,17.20
2019-01-21T09:30:11.305Z,9.40
2019-01-21T09:32:58.112Z,14.50
2019-01-21T09:35:29.870Z,9.90
2019-01-21T09:38:07.572Z,11.47
2019-01-21T09:40:36.563Z,9.80
2019-01-21T09:43:11.195Z,11.77
2019-01-21T09:45:42.845Z,7.10
2019-01-21T09:48:09.379Z,8.03
2019-01-21T09:50:36.016Z,7.90
2019-01-21T09:53:02.658Z,16.17
2019-01-21T09:55:29.394Z,11.60
2019-01-21T09:57:57.978Z,5.27
2019-01-21T10:00:26.216Z,6.60
2019-01-21T10:02:52.998Z,8.73
2019-01-21T10:05:19.738Z,6.97
2019-01-21T10:07:47.499Z,6.53
2019-01-21T10:10:34.413Z,7.83
2019-01-21T10:13:05.877Z,6.30
2019-01-21T10:15:37.727Z,7.53
2019-01-21T10:18:06.107Z,9.40
2019-01-21T10:20:46.624Z,6.17
2019-01-21T10:23:18.009Z,4.33
2019-01-21T10:25:46.498Z,4.73
2019-01-21T10:28:21.021Z,6.63
2019-01-21T10:30:52.577Z,5.27
2019-01-21T10:33:20.960Z,8.17
2019-01-21T10:35:55.582Z,7.20
2019-01-21T10:38:40.862Z,7.83
2019-01-21T10:41:09.238Z,16.03
2019-01-21T10:43:54.314Z,10.57
2019-01-21T10:46:34.987Z,7.97
2019-01-21T10:49:03.555Z,8.73
2019-01-21T10:51:31.988Z,9.23
2019-01-21T10:54:00.520Z,7.93
2019-01-21T10:56:32.180Z,7.83
2019-01-21T10:59:15.912Z,8.57
2019-01-21T11:01:44.396Z,8.47
2019-01-21T11:04:29.770Z,7.37
2019-01-21T11:06:58.154Z,7.43
2019-01-21T11:09:35.954Z,7.83
2019-01-21T11:12:07.712Z,7.13
2019-01-21T11:14:36.379Z,8.63
2019-01-21T11:17:07.850Z,8.27
2019-01-21T11:19:51.790Z,6.20
2019-01-21T11:22:21.297Z,7.13
2019-01-21T11:24:49.675Z,5.63
2019-01-21T11:27:17.991Z,6.40
2019-01-21T11:29:46.492Z,5.23
2019-01-21T11:32:15.139Z,6.53
2019-01-21T11:34:52.920Z,5.23
2019-01-21T11:37:27.413Z,7.40
2019-01-21T11:39:55.763Z,7.30
2019-01-21T11:42:27.200Z,4.23
2019-01-21T11:44:55.647Z,3.50
2019-01-21T11:47:24.072Z,5.30
2019-01-21T11:49:56.505Z,6.93
2019-01-21T11:52:24.985Z,4.93
2019-01-21T11:54:54.906Z,8.57
2019-01-21T11:57:42.032Z,4.97
2019-01-21T12:00:10.514Z,4.20
2019-01-21T12:02:45.131Z,5.07
2019-01-21T12:05:25.796Z,7.07
2019-01-21T12:08:00.224Z,7.73
2019-01-21T12:10:28.697Z,3.63
2019-01-21T12:13:13.969Z,7.03
2019-01-21T12:16:01.247Z,5.33
2019-01-21T12:18:32.852Z,6.47
2019-01-21T12:21:01.328Z,7.53
2019-01-21T12:23:29.811Z,7.13
2019-01-21T12:25:58.394Z,3.97
2019-01-21T12:28:30.051Z,4.93
2019-01-21T12:30:58.938Z,6.40
2019-01-21T12:33:42.577Z,5.00
2019-01-21T12:36:11.161Z,6.57
2019-01-21T12:38:39.747Z,2.67
2019-01-21T12:41:14.473Z,6.43
2019-01-21T12:43:43.057Z,12.13
2019-01-21T12:46:11.546Z,4.67
2019-01-21T12:48:40.003Z,5.23
2019-01-21T12:51:08.603Z,4.87
2019-01-21T12:53:40.099Z,4.13
2019-01-21T12:56:17.751Z,3.03
2019-01-21T12:59:04.661Z,4.83
2019-01-21T13:01:39.021Z,3.33
2019-01-21T13:04:07.461Z,4.07
2019-01-21T13:06:42.201Z,4.67
2019-01-21T13:09:19.887Z,5.60
2019-01-21T13:11:48.370Z,4.80
2019-01-21T13:14:28.831Z,5.43
2019-01-21T13:16:58.031Z,15.00
2019-01-21T13:19:26.512Z,5.50
2019-01-21T13:22:10.251Z,18.80
2019-01-21T13:24:55.630Z,3.50
2019-01-21T13:27:24.110Z,7.03
2019-01-21T13:29:52.282Z,41.83
2019-01-21T13:32:39.096Z,4.47
2019-01-21T13:35:08.704Z,5.30
2019-01-21T13:37:49.267Z,4.87
2019-01-21T13:40:26.455Z,11.67
2019-01-21T13:42:54.978Z,10.10
2019-01-21T13:45:40.005Z,4.60
2019-01-21T13:48:08.536Z,4.13
2019-01-21T13:50:37.307Z,8.63
2019-01-21T13:53:08.723Z,8.57
2019-01-21T13:55:52.106Z,6.80
2019-01-21T13:58:23.198Z,3.77
2019-01-21T14:01:06.939Z,8.10
2019-01-21T14:03:38.079Z,6.40
2019-01-21T14:06:12.603Z,5.00
2019-01-21T14:08:57.359Z,4.77
2019-01-21T14:11:25.949Z,6.37
2019-01-21T14:13:54.429Z,4.33
2019-01-21T14:16:25.832Z,7.17
2019-01-21T14:18:54.164Z,4.70
2019-01-21T14:21:31.653Z,5.67
2019-01-21T14:24:00.138Z,6.70
2019-01-21T14:26:31.191Z,6.67
2019-01-21T14:29:02.217Z,5.90
2019-01-21T14:31:34.843Z,6.50
2019-01-21T14:34:21.706Z,5.73
2019-01-21T14:37:05.855Z,7.30
2019-01-21T14:39:35.003Z,5.40
2019-01-21T14:42:03.536Z,5.70
2019-01-21T14:44:49.119Z,12.30
2019-01-21T14:47:36.033Z,10.53
2019-01-21T14:50:10.326Z,9.40
2019-01-21T14:52:41.903Z,7.87
2019-01-21T14:55:28.684Z,14.57
2019-01-21T14:58:00.069Z,9.30
2019-01-21T15:00:28.441Z,10.93
2019-01-21T15:02:57.051Z,13.87
2019-01-21T15:05:28.700Z,20.27
2019-01-21T15:07:57.260Z,10.90
2019-01-21T15:10:42.498Z,10.43
2019-01-21T15:13:14.201Z,14.63
2019-01-21T15:15:42.508Z,20.27
2019-01-21T15:18:15.255Z,17.83
2019-01-21T15:20:57.658Z,18.67
2019-01-21T15:23:26.158Z,21.80
2019-01-21T15:25:54.573Z,23.03
2019-01-21T15:28:41.370Z,17.63
2019-01-21T15:31:09.939Z,19.37
2019-01-21T15:33:56.574Z,24.90
2019-01-21T15:36:41.799Z,13.93
2019-01-21T15:39:10.526Z,14.57
2019-01-21T15:41:39.033Z,22.83
2019-01-21T15:44:07.647Z,10.33
2019-01-21T15:46:39.131Z,11.20
2019-01-21T15:49:07.685Z,9.87
2019-01-21T15:51:53.041Z,37.83
2019-01-21T15:54:22.673Z,29.33
2019-01-21T15:56:51.260Z,20.33
2019-01-21T15:59:19.738Z,17.27
2019-01-21T16:01:51.031Z,16.50
2019-01-21T16:04:22.436Z,18.27
2019-01-21T16:06:54.094Z,23.90
2019-01-21T16:09:22.887Z,21.67
2019-01-21T16:11:51.568Z,24.70
2019-01-21T16:14:19.742Z,20.90
2019-01-21T16:17:06.452Z,16.37
2019-01-21T16:19:33.292Z,16.27
2019-01-21T16:22:04.438Z,17.77
2019-01-21T16:24:44.907Z,15.53
2019-01-21T16:27:25.162Z,16.13
2019-01-21T16:29:59.378Z,14.53
2019-01-21T16:32:26.933Z,16.20
2019-01-21T16:34:55.315Z,15.13
2019-01-21T16:37:23.608Z,10.93
2019-01-21T16:40:01.287Z,13.20
2019-01-21T16:42:27.722Z,16.07
2019-01-21T16:44:57.337Z,24.43
2019-01-21T16:47:26.555Z,18.10
2019-01-21T16:49:52.650Z,15.70
2019-01-21T16:52:19.288Z,22.47
2019-01-21T16:54:46.029Z,14.10
2019-01-21T16:57:13.844Z,12.60
2019-01-21T16:59:40.636Z,11.97
2019-01-21T17:02:07.374Z,17.03
2019-01-21T17:04:34.142Z,29.53
2019-01-21T17:07:00.754Z,17.03
2019-01-21T17:09:27.495Z,14.93
2019-01-21T17:11:55.549Z,16.37
2019-01-21T17:14:22.516Z,10.10
2019-01-21T17:16:49.251Z,12.07
2019-01-21T17:19:15.995Z,14.27
2019-01-21T17:21:42.940Z,9.07
2019-01-21T17:24:09.678Z,15.13
2019-01-21T17:26:36.540Z,10.97
2019-01-21T17:29:03.410Z,9.63
2019-01-21T17:31:30.003Z,10.70
2019-01-21T17:33:59.407Z,8.53
2019-01-21T17:36:26.043Z,29.07
2019-01-21T17:38:52.683Z,14.73
2019-01-21T17:41:19.424Z,16.03
2019-01-21T17:43:46.163Z,9.53
2019-01-21T17:46:12.907Z,9.63
2019-01-21T17:48:40.241Z,10.00
2019-01-21T17:51:07.001Z,15.77
2019-01-21T17:53:33.742Z,17.70
2019-01-21T17:56:00.485Z,14.70
2019-01-21T17:58:27.239Z,8.83
2019-01-21T18:00:53.963Z,16.30
2019-01-21T18:03:20.804Z,16.40
2019-01-21T18:05:47.550Z,11.70
2019-01-21T18:08:14.288Z,22.97
2019-01-21T18:10:41.024Z,18.13
2019-01-21T18:13:07.612Z,24.40
2019-01-21T18:15:35.334Z,15.03
2019-01-21T18:18:01.978Z,14.03
2019-01-21T18:20:28.592Z,15.67
2019-01-21T18:22:55.244Z,17.10
2019-01-21T18:25:21.983Z,18.90
2019-01-21T18:27:48.723Z,14.67
2019-01-21T18:30:16.696Z,17.30
2019-01-21T18:32:43.462Z,16.67
2019-01-21T18:35:10.996Z,16.37
2019-01-21T18:37:37.731Z,16.70
2019-01-21T18:40:06.216Z,17.60
2019-01-21T18:42:32.958Z,13.47
2019-01-21T18:44:59.629Z,14.50
2019-01-21T18:47:26.335Z,16.00
2019-01-21T18:49:53.113Z,20.80
2019-01-21T18:52:20.650Z,15.70
2019-01-21T18:54:50.343Z,17.43
2019-01-21T18:57:17.085Z,15.77
2019-01-21T18:59:43.827Z,10.40
2019-01-21T19:02:10.772Z,13.70
2019-01-21T19:06:18.089Z,13.63
2019-01-21T19:08:45.424Z,14.10
2019-01-21T19:11:12.473Z,14.43
2019-01-21T19:13:39.335Z,15.73
2019-01-21T19:16:06.260Z,12.67
2019-01-21T19:18:33.411Z,15.53
2019-01-21T19:21:00.459Z,17.00
2019-01-21T19:23:27.606Z,24.07
2019-01-21T19:25:56.497Z,15.40
2019-01-21T19:28:23.650Z,14.20
2019-01-21T19:30:50.799Z,16.63
2019-01-21T19:33:17.951Z,16.73
2019-01-21T19:35:45.306Z,17.90
2019-01-21T19:38:12.558Z,21.03
2019-01-21T19:40:39.603Z,15.40
2019-01-21T19:43:07.677Z,17.53
2019-01-21T19:45:34.595Z,18.67
2019-01-21T19:48:01.586Z,21.63
2019-01-21T19:50:28.500Z,18.00
2019-01-21T19:55:35.709Z,17.47
2019-01-21T19:58:02.746Z,14.67
2019-01-21T20:00:29.816Z,20.10
2019-01-21T20:02:57.362Z,18.03
2019-01-21T20:05:27.151Z,14.17
2019-01-21T20:07:54.122Z,16.37
2019-01-21T20:10:22.193Z,19.40
2019-01-21T20:12:49.548Z,17.90
2019-01-21T20:15:17.156Z,12.73
2019-01-21T20:17:44.257Z,12.20
2019-01-21T20:20:13.333Z,14.93
2019-01-21T20:22:40.778Z,12.63
2019-01-21T20:25:10.569Z,12.80
2019-01-21T20:27:39.827Z,11.67
2019-01-21T20:30:20.702Z,13.07
2019-01-21T20:33:01.047Z,12.90
2019-01-21T20:35:40.748Z,12.93
2019-01-21T20:38:09.906Z,12.63
2019-01-21T20:40:38.638Z,10.90
2019-01-21T20:43:06.270Z,11.07
2019-01-21T20:45:34.530Z,12.33
2019-01-21T20:48:05.181Z,14.07
2019-01-21T20:50:35.182Z,13.87
2019-01-21T20:53:05.817Z,11.60
2019-01-21T20:55:34.820Z,11.87
2019-01-21T20:58:05.588Z,10.43
2019-01-21T21:00:39.633Z,9.97
2019-01-21T21:03:07.974Z,10.63
2019-01-21T21:05:36.182Z,10.97
2019-01-21T21:08:04.543Z,11.03
2019-01-21T21:10:34.368Z,11.50
2019-01-21T21:13:04.762Z,12.07
2019-01-21T21:15:32.932Z,16.77
2019-01-21T21:18:01.317Z,10.03
2019-01-21T21:20:30.853Z,12.27
2019-01-21T21:23:00.457Z,13.40
2019-01-21T21:25:29.625Z,15.37
2019-01-21T21:28:02.802Z,13.70
2019-01-21T21:30:38.287Z,14.53
2019-01-21T21:33:07.214Z,20.00
2019-01-21T21:35:38.006Z,21.33
2019-01-21T21:38:05.201Z,16.03
2019-01-21T21:40:39.163Z,13.37
2019-01-21T21:43:06.775Z,16.20
2019-01-21T21:45:34.275Z,14.60
2019-01-21T21:48:05.450Z,11.90
2019-01-21T21:50:32.767Z,13.20
2019-01-21T21:53:01.155Z,9.47
2019-01-21T21:55:30.529Z,5.97
2019-01-21T21:57:59.016Z,5.07
2019-01-21T22:00:35.306Z,5.77
2019-01-21T22:03:05.365Z,5.03
2019-01-21T22:05:32.831Z,6.20
2019-01-21T22:08:01.073Z,4.50
2019-01-21T22:10:34.888Z,5.63
2019-01-21T22:13:02.655Z,6.37
2019-01-21T22:15:29.521Z,10.63
2019-01-21T22:17:59.996Z,7.60
2019-01-21T22:20:27.871Z,9.00
2019-01-21T22:23:01.129Z,11.63
2019-01-21T22:25:31.278Z,11.37
2019-01-21T22:28:01.191Z,11.00
2019-01-21T22:30:30.292Z,10.13
2019-01-21T22:32:57.281Z,13.30
2019-01-21T22:35:27.046Z,11.53
2019-01-21T22:37:56.832Z,12.87
2019-01-21T22:40:24.862Z,10.13
2019-01-21T22:42:55.800Z,8.17
2019-01-21T22:45:28.896Z,10.07
2019-01-21T22:47:59.600Z,10.67
2019-01-21T22:50:29.124Z,12.77
2019-01-21T22:53:01.098Z,15.87
2019-01-21T22:55:30.038Z,12.27
2019-01-21T22:57:57.784Z,13.10
2019-01-21T23:00:31.996Z,14.43
2019-01-21T23:03:02.490Z,12.37
2019-01-21T23:05:32.209Z,15.10
2019-01-21T23:08:01.935Z,13.50
2019-01-21T23:10:32.905Z,13.27
2019-01-21T23:13:01.362Z,13.13
2019-01-21T23:15:29.358Z,13.90
2019-01-21T23:18:04.383Z,12.87
2019-01-21T23:20:32.090Z,14.83
2019-01-21T23:23:01.726Z,15.30
2019-01-21T23:25:33.556Z,12.47
2019-01-21T23:28:03.841Z,10.97
2019-01-21T23:30:34.256Z,10.57
2019-01-21T23:33:06.422Z,7.93
2019-01-21T23:35:34.442Z,8.93
2019-01-21T23:38:05.049Z,7.73
2019-01-21T23:40:35.097Z,7.20
2019-01-21T23:43:04.944Z,9.13
2019-01-21T23:45:42.109Z,11.30
2019-01-21T23:48:14.871Z,8.40
2019-01-21T23:50:44.827Z,12.60
2019-01-21T23:53:13.307Z,8.50
2019-01-21T23:55:42.736Z,8.43
2019-01-21T23:58:12.896Z,8.50
